sensor_id;sensor_type;location;lat;lon;timestamp;pressure;altitude;pressure_sealevel;temperature;humidity
71974;BME280;59840;52.122;5.404;2023-02-03T00:01:51;102544.44;;;8.23;98.36
71974;BME280;59840;52.122;5.404;2023-02-03T00:04:18;102552.16;;;8.25;98.49
71974;BME280;59840;52.122;5.404;2023-02-03T00:06:45;102561.47;;;8.27;98.23
71974;BME280;59840;52.122;5.404;2023-02-03T00:09:13;102552.78;;;8.27;98.54
71974;BME280;59840;52.122;5.404;2023-02-03T00:11:40;102569.38;;;8.27;98.09
71974;BME280;59840;52.122;5.404;2023-02-03T00:14:06;102571.81;;;8.29;98.27
71974;BME280;59840;52.122;5.404;2023-02-03T00:16:33;102572.00;;;8.27;98.16
71974;BME280;59840;52.122;5.404;2023-02-03T00:19:00;102566.75;;;8.27;98.14
71974;BME280;59840;52.122;5.404;2023-02-03T00:21:27;102569.56;;;8.26;97.99
71974;BME280;59840;52.122;5.404;2023-02-03T00:23:53;102573.19;;;8.25;97.84
71974;BME280;59840;52.122;5.404;2023-02-03T00:26:20;102569.56;;;8.26;97.40
71974;BME280;59840;52.122;5.404;2023-02-03T00:28:47;102570.56;;;8.25;98.19
71974;BME280;59840;52.122;5.404;2023-02-03T00:31:18;102572.38;;;8.24;97.82
71974;BME280;59840;52.122;5.404;2023-02-03T00:33:46;102578.44;;;8.25;97.77
71974;BME280;59840;52.122;5.404;2023-02-03T00:36:13;102574.81;;;8.26;97.26
71974;BME280;59840;52.122;5.404;2023-02-03T00:38:39;102581.53;;;8.28;97.30
71974;BME280;59840;52.122;5.404;2023-02-03T00:41:06;102584.97;;;8.29;97.32
71974;BME280;59840;52.122;5.404;2023-02-03T00:43:33;102578.06;;;8.28;96.91
71974;BME280;59840;52.122;5.404;2023-02-03T00:45:59;102578.88;;;8.28;97.25
71974;BME280;59840;52.122;5.404;2023-02-03T00:48:26;102581.53;;;8.28;96.76
71974;BME280;59840;52.122;5.404;2023-02-03T00:50:53;102574.44;;;8.29;97.14
71974;BME280;59840;52.122;5.404;2023-02-03T00:53:19;102580.34;;;8.31;96.47
71974;BME280;59840;52.122;5.404;2023-02-03T00:55:46;102583.59;;;8.33;96.52
71974;BME280;59840;52.122;5.404;2023-02-03T00:58:12;102567.19;;;8.31;96.22
71974;BME280;59840;52.122;5.404;2023-02-03T01:00:39;102565.56;;;8.30;96.07
71974;BME280;59840;52.122;5.404;2023-02-03T01:03:05;102566.38;;;8.30;96.48
71974;BME280;59840;52.122;5.404;2023-02-03T01:05:32;102570.44;;;8.33;96.16
71974;BME280;59840;52.122;5.404;2023-02-03T01:08:00;102567.19;;;8.31;96.40
71974;BME280;59840;52.122;5.404;2023-02-03T01:10:27;102563.53;;;8.32;95.85
71974;BME280;59840;52.122;5.404;2023-02-03T01:12:54;102561.56;;;8.34;95.85
71974;BME280;59840;52.122;5.404;2023-02-03T01:15:21;102564.56;;;8.31;95.50
71974;BME280;59840;52.122;5.404;2023-02-03T01:17:47;102563.75;;;8.30;96.05
71974;BME280;59840;52.122;5.404;2023-02-03T01:20:14;102570.00;;;8.29;95.62
71974;BME280;59840;52.122;5.404;2023-02-03T01:22:42;102560.28;;;8.30;95.63
71974;BME280;59840;52.122;5.404;2023-02-03T01:25:08;102566.16;;;8.32;95.21
71974;BME280;59840;52.122;5.404;2023-02-03T01:27:35;102569.81;;;8.31;95.50
71974;BME280;59840;52.122;5.404;2023-02-03T01:30:02;102556.66;;;8.31;95.36
71974;BME280;59840;52.122;5.404;2023-02-03T01:32:29;102536.63;;;8.30;95.13
71974;BME280;59840;52.122;5.404;2023-02-03T01:34:55;102520.03;;;8.29;95.26
71974;BME280;59840;52.122;5.404;2023-02-03T01:37:22;102514.97;;;8.28;94.90
71974;BME280;59840;52.122;5.404;2023-02-03T01:39:48;102516.78;;;8.27;95.16
71974;BME280;59840;52.122;5.404;2023-02-03T01:42:15;102516.78;;;8.27;95.17
71974;BME280;59840;52.122;5.404;2023-02-03T01:44:43;102519.41;;;8.27;95.41
71974;BME280;59840;52.122;5.404;2023-02-03T01:49:43;102514.16;;;8.27;95.46
71974;BME280;59840;52.122;5.404;2023-02-03T01:52:10;102520.03;;;8.29;94.96
71974;BME280;59840;52.122;5.404;2023-02-03T01:54:40;102532.81;;;8.32;95.27
71974;BME280;59840;52.122;5.404;2023-02-03T01:57:14;102521.66;;;8.30;94.45
71974;BME280;59840;52.122;5.404;2023-02-03T01:59:42;102505.66;;;8.32;94.17
71974;BME280;59840;52.122;5.404;2023-02-03T02:02:10;102490.72;;;8.32;93.95
71974;BME280;59840;52.122;5.404;2023-02-03T02:04:59;102495.16;;;8.32;94.46
71974;BME280;59840;52.122;5.404;2023-02-03T02:07:26;102490.09;;;8.30;94.00
71974;BME280;59840;52.122;5.404;2023-02-03T02:09:54;102475.94;;;8.31;93.83
71974;BME280;59840;52.122;5.404;2023-02-03T02:12:21;102488.91;;;8.33;93.46
71974;BME280;59840;52.122;5.404;2023-02-03T02:14:48;102495.16;;;8.32;93.34
71974;BME280;59840;52.122;5.404;2023-02-03T02:20:15;102502.06;;;8.33;93.44
71974;BME280;59840;52.122;5.404;2023-02-03T02:23:19;102501.69;;;8.36;93.47
71974;BME280;59840;52.122;5.404;2023-02-03T02:29:11;102521.72;;;8.37;93.51
71974;BME280;59840;52.122;5.404;2023-02-03T02:32:04;102520.91;;;8.36;93.74
71974;BME280;59840;52.122;5.404;2023-02-03T02:37:17;102515.47;;;8.38;93.28
71974;BME280;59840;52.122;5.404;2023-02-03T02:39:57;102503.31;;;8.37;93.62
71974;BME280;59840;52.122;5.404;2023-02-03T02:42:38;102503.31;;;8.37;92.71
71974;BME280;59840;52.122;5.404;2023-02-03T02:45:28;102509.38;;;8.37;92.74
71974;BME280;59840;52.122;5.404;2023-02-03T02:48:05;102504.13;;;8.37;93.11
71974;BME280;59840;52.122;5.404;2023-02-03T02:50:39;102497.25;;;8.36;92.50
71974;BME280;59840;52.122;5.404;2023-02-03T02:53:07;102488.72;;;8.34;92.74
71974;BME280;59840;52.122;5.404;2023-02-03T02:55:36;102485.09;;;8.35;93.26
71974;BME280;59840;52.122;5.404;2023-02-03T02:58:08;102478.03;;;8.36;92.81
71974;BME280;59840;52.122;5.404;2023-02-03T03:00:36;102488.34;;;8.37;92.30
71974;BME280;59840;52.122;5.404;2023-02-03T03:03:17;102474.19;;;8.38;92.36
71974;BME280;59840;52.122;5.404;2023-02-03T03:05:54;102465.94;;;8.42;92.96
71974;BME280;59840;52.122;5.404;2023-02-03T03:08:29;102466.75;;;8.42;92.20
71974;BME280;59840;52.122;5.404;2023-02-03T03:10:57;102466.13;;;8.40;92.46
71974;BME280;59840;52.122;5.404;2023-02-03T03:13:31;102469.56;;;8.40;91.94
71974;BME280;59840;52.122;5.404;2023-02-03T03:16:01;102483.16;;;8.44;91.66
71974;BME280;59840;52.122;5.404;2023-02-03T03:18:34;102471.63;;;8.45;91.57
71974;BME280;59840;52.122;5.404;2023-02-03T03:21:03;102483.16;;;8.44;91.73
71974;BME280;59840;52.122;5.404;2023-02-03T03:23:36;102473.25;;;8.46;92.17
71974;BME280;59840;52.122;5.404;2023-02-03T03:26:11;102472.25;;;8.47;92.24
71974;BME280;59840;52.122;5.404;2023-02-03T03:28:48;102469.00;;;8.45;92.25
71974;BME280;59840;52.122;5.404;2023-02-03T03:31:18;102468.00;;;8.46;91.65
71974;BME280;59840;52.122;5.404;2023-02-03T03:33:46;102464.56;;;8.46;92.01
71974;BME280;59840;52.122;5.404;2023-02-03T03:36:34;102472.25;;;8.47;92.45
71974;BME280;59840;52.122;5.404;2023-02-03T03:39:10;102482.78;;;8.47;91.86
71974;BME280;59840;52.122;5.404;2023-02-03T03:44:21;102485.03;;;8.50;91.89
71974;BME280;59840;52.122;5.404;2023-02-03T03:46:58;102486.03;;;8.49;91.83
71974;BME280;59840;52.122;5.404;2023-02-03T03:49:30;102486.03;;;8.49;92.05
71974;BME280;59840;52.122;5.404;2023-02-03T03:52:02;102491.91;;;8.51;92.13
71974;BME280;59840;52.122;5.404;2023-02-03T03:54:31;102505.06;;;8.51;91.94
71974;BME280;59840;52.122;5.404;2023-02-03T03:57:08;102512.78;;;8.53;91.75
71974;BME280;59840;52.122;5.404;2023-02-03T03:59:44;102513.59;;;8.53;91.73
71974;BME280;59840;52.122;5.404;2023-02-03T04:02:13;102509.97;;;8.54;92.13
71974;BME280;59840;52.122;5.404;2023-02-03T04:04:40;102507.31;;;8.54;91.90
71974;BME280;59840;52.122;5.404;2023-02-03T04:07:08;102506.31;;;8.55;91.47
71974;BME280;59840;52.122;5.404;2023-02-03T04:09:36;102501.06;;;8.55;92.10
71974;BME280;59840;52.122;5.404;2023-02-03T04:12:03;102499.06;;;8.57;91.19
71974;BME280;59840;52.122;5.404;2023-02-03T04:14:35;102503.31;;;8.58;91.54
71974;BME280;59840;52.122;5.404;2023-02-03T04:17:05;102484.09;;;8.58;91.12
71974;BME280;59840;52.122;5.404;2023-02-03T04:19:32;102498.69;;;8.60;91.09
71974;BME280;59840;52.122;5.404;2023-02-03T04:21:58;102509.22;;;8.60;91.12
71974;BME280;59840;52.122;5.404;2023-02-03T04:24:25;102501.13;;;8.62;90.69
71974;BME280;59840;52.122;5.404;2023-02-03T04:26:51;102501.56;;;8.65;90.95
71974;BME280;59840;52.122;5.404;2023-02-03T04:29:18;102493.66;;;8.65;90.96
71974;BME280;59840;52.122;5.404;2023-02-03T04:31:44;102497.91;;;8.66;91.20
71974;BME280;59840;52.122;5.404;2023-02-03T04:34:11;102495.47;;;8.65;90.86
71974;BME280;59840;52.122;5.404;2023-02-03T04:36:37;102508.41;;;8.66;90.84
71974;BME280;59840;52.122;5.404;2023-02-03T04:39:04;102501.59;;;8.72;90.13
71974;BME280;59840;52.122;5.404;2023-02-03T04:41:31;102490.25;;;8.71;90.41
71974;BME280;59840;52.122;5.404;2023-02-03T04:43:57;102497.50;;;8.69;89.99
71974;BME280;59840;52.122;5.404;2023-02-03T04:46:24;102496.50;;;8.70;90.30
71974;BME280;59840;52.122;5.404;2023-02-03T04:48:50;102510.47;;;8.71;89.66
71974;BME280;59840;52.122;5.404;2023-02-03T04:51:17;102507.66;;;8.72;90.08
71974;BME280;59840;52.122;5.404;2023-02-03T04:53:43;102498.38;;;8.77;89.66
71974;BME280;59840;52.122;5.404;2023-02-03T04:56:10;102485.66;;;8.80;89.58
71974;BME280;59840;52.122;5.404;2023-02-03T04:58:36;102478.97;;;8.78;89.93
71974;BME280;59840;52.122;5.404;2023-02-03T05:01:07;102492.13;;;8.78;90.22
71974;BME280;59840;52.122;5.404;2023-02-03T05:03:34;102484.03;;;8.79;89.46
71974;BME280;59840;52.122;5.404;2023-02-03T05:06:01;102479.78;;;8.78;90.20
71974;BME280;59840;52.122;5.404;2023-02-03T05:08:29;102481.78;;;8.76;89.68
71974;BME280;59840;52.122;5.404;2023-02-03T05:10:56;102479.78;;;8.78;89.81
71974;BME280;59840;52.122;5.404;2023-02-03T05:13:23;102474.94;;;8.82;89.63
71974;BME280;59840;52.122;5.404;2023-02-03T05:15:49;102479.44;;;8.88;89.21
71974;BME280;59840;52.122;5.404;2023-02-03T05:18:16;102488.97;;;8.89;89.45
71974;BME280;59840;52.122;5.404;2023-02-03T05:20:42;102493.22;;;8.90;88.89
71974;BME280;59840;52.122;5.404;2023-02-03T05:23:09;102505.38;;;8.91;89.09
71974;BME280;59840;52.122;5.404;2023-02-03T05:25:35;102497.91;;;8.94;89.44
71974;BME280;59840;52.122;5.404;2023-02-03T05:28:02;102494.47;;;8.94;88.82
71974;BME280;59840;52.122;5.404;2023-02-03T05:30:29;102488.19;;;8.95;89.05
71974;BME280;59840;52.122;5.404;2023-02-03T05:32:56;102483.19;;;9.00;89.19
71974;BME280;59840;52.122;5.404;2023-02-03T05:35:22;102490.44;;;8.98;89.06
71974;BME280;59840;52.122;5.404;2023-02-03T05:37:49;102486.19;;;8.97;88.92
71974;BME280;59840;52.122;5.404;2023-02-03T05:40:15;102487.19;;;8.96;88.53
71974;BME280;59840;52.122;5.404;2023-02-03T05:43:00;102494.09;;;8.97;88.72
71974;BME280;59840;52.122;5.404;2023-02-03T05:45:27;102481.94;;;8.96;88.46
71974;BME280;59840;52.122;5.404;2023-02-03T05:47:53;102491.44;;;8.97;88.37
71974;BME280;59840;52.122;5.404;2023-02-03T05:50:20;102505.84;;;9.01;88.73
71974;BME280;59840;52.122;5.404;2023-02-03T05:52:48;102492.06;;;8.99;89.09
71974;BME280;59840;52.122;5.404;2023-02-03T05:55:15;102505.63;;;8.96;88.99
71974;BME280;59840;52.122;5.404;2023-02-03T05:57:42;102482.75;;;8.96;88.78
71974;BME280;59840;52.122;5.404;2023-02-03T06:00:09;102503.41;;;8.99;87.95
71974;BME280;59840;52.122;5.404;2023-02-03T06:02:35;102477.91;;;9.00;88.28
71974;BME280;59840;52.122;5.404;2023-02-03T06:05:02;102483.56;;;9.03;88.99
71974;BME280;59840;52.122;5.404;2023-02-03T06:07:28;102482.34;;;8.99;88.82
71974;BME280;59840;52.122;5.404;2023-02-03T06:09:55;102492.88;;;8.99;88.68
71974;BME280;59840;52.122;5.404;2023-02-03T06:12:21;102497.16;;;9.00;88.90
71974;BME280;59840;52.122;5.404;2023-02-03T06:14:48;102490.25;;;8.99;88.43
71974;BME280;59840;52.122;5.404;2023-02-03T06:17:14;102485.19;;;8.98;88.92
71974;BME280;59840;52.122;5.404;2023-02-03T06:19:41;102487.81;;;8.98;88.55
71974;BME280;59840;52.122;5.404;2023-02-03T06:22:07;102482.13;;;9.01;88.82
71974;BME280;59840;52.122;5.404;2023-02-03T06:24:34;102486.81;;;8.99;88.58
71974;BME280;59840;52.122;5.404;2023-02-03T06:27:00;102500.78;;;8.99;88.96
71974;BME280;59840;52.122;5.404;2023-02-03T06:29:27;102496.53;;;8.98;88.50
71974;BME280;59840;52.122;5.404;2023-02-03T06:31:53;102500.78;;;8.99;88.87
71974;BME280;59840;52.122;5.404;2023-02-03T06:34:20;102502.59;;;8.99;88.48
71974;BME280;59840;52.122;5.404;2023-02-03T06:36:46;102501.59;;;9.00;88.35
71974;BME280;59840;52.122;5.404;2023-02-03T06:39:14;102495.72;;;8.98;89.21
71974;BME280;59840;52.122;5.404;2023-02-03T06:41:41;102495.72;;;8.98;88.53
71974;BME280;59840;52.122;5.404;2023-02-03T06:44:07;102494.91;;;8.97;88.54
71974;BME280;59840;52.122;5.404;2023-02-03T06:46:34;102494.91;;;8.97;89.44
71974;BME280;59840;52.122;5.404;2023-02-03T06:49:00;102488.00;;;8.96;88.76
71974;BME280;59840;52.122;5.404;2023-02-03T06:51:27;102494.09;;;8.97;88.77
71974;BME280;59840;52.122;5.404;2023-02-03T06:53:53;102509.25;;;8.95;89.42
71974;BME280;59840;52.122;5.404;2023-02-03T06:56:20;102514.72;;;8.93;89.46
71974;BME280;59840;52.122;5.404;2023-02-03T06:58:46;102518.78;;;8.96;89.30
71974;BME280;59840;52.122;5.404;2023-02-03T07:01:13;102519.78;;;8.95;88.70
71974;BME280;59840;52.122;5.404;2023-02-03T07:03:40;102534.41;;;8.97;88.98
71974;BME280;59840;52.122;5.404;2023-02-03T07:06:06;102541.47;;;8.97;88.51
71974;BME280;59840;52.122;5.404;2023-02-03T07:08:33;102537.41;;;8.94;89.00
71974;BME280;59840;52.122;5.404;2023-02-03T07:10:59;102556.66;;;8.95;89.39
71974;BME280;59840;52.122;5.404;2023-02-03T07:13:26;102542.47;;;8.96;89.60
71974;BME280;59840;52.122;5.404;2023-02-03T07:15:52;102549.56;;;8.95;89.07
71974;BME280;59840;52.122;5.404;2023-02-03T07:18:19;102544.31;;;8.95;89.08
71974;BME280;59840;52.122;5.404;2023-02-03T07:21:10;102549.38;;;8.97;89.48
71974;BME280;59840;52.122;5.404;2023-02-03T07:23:36;102545.94;;;8.96;89.64
71974;BME280;59840;52.122;5.404;2023-02-03T07:26:04;102550.81;;;8.99;88.90
71974;BME280;59840;52.122;5.404;2023-02-03T07:28:34;102545.94;;;8.96;89.21
71974;BME280;59840;52.122;5.404;2023-02-03T07:31:02;102545.13;;;8.96;88.95
71974;BME280;59840;52.122;5.404;2023-02-03T07:33:33;102562.53;;;8.97;89.50
71974;BME280;59840;52.122;5.404;2023-02-03T07:36:00;102565.34;;;8.95;89.50
71974;BME280;59840;52.122;5.404;2023-02-03T07:38:27;102562.72;;;8.95;90.14
71974;BME280;59840;52.122;5.404;2023-02-03T07:40:54;102552.00;;;8.97;89.49
71974;BME280;59840;52.122;5.404;2023-02-03T07:43:21;102555.06;;;9.00;88.68
71974;BME280;59840;52.122;5.404;2023-02-03T07:45:48;102539.47;;;8.99;89.26
71974;BME280;59840;52.122;5.404;2023-02-03T07:48:15;102548.38;;;8.98;89.28
71974;BME280;59840;52.122;5.404;2023-02-03T07:50:41;102556.91;;;9.00;90.02
71974;BME280;59840;52.122;5.404;2023-02-03T07:53:08;102560.13;;;9.02;89.46
71974;BME280;59840;52.122;5.404;2023-02-03T07:55:37;102567.19;;;9.01;89.89
71974;BME280;59840;52.122;5.404;2023-02-03T07:58:03;102576.91;;;9.01;89.60
71974;BME280;59840;52.122;5.404;2023-02-03T08:00:30;102565.38;;;9.02;89.92
71974;BME280;59840;52.122;5.404;2023-02-03T08:02:57;102568.63;;;9.04;89.56
71974;BME280;59840;52.122;5.404;2023-02-03T08:05:23;102563.38;;;9.04;89.82
71974;BME280;59840;52.122;5.404;2023-02-03T08:07:50;102565.81;;;9.05;89.90
71974;BME280;59840;52.122;5.404;2023-02-03T08:10:17;102580.44;;;9.08;89.23
71974;BME280;59840;52.122;5.404;2023-02-03T08:12:43;102578.59;;;9.08;90.11
71974;BME280;59840;52.122;5.404;2023-02-03T08:15:12;102594.22;;;9.10;89.48
71974;BME280;59840;52.122;5.404;2023-02-03T08:17:39;102588.75;;;9.12;89.71
71974;BME280;59840;52.122;5.404;2023-02-03T08:20:08;102595.66;;;9.13;90.18
71974;BME280;59840;52.122;5.404;2023-02-03T08:22:34;102606.00;;;9.14;89.93
71974;BME280;59840;52.122;5.404;2023-02-03T08:25:01;102596.09;;;9.16;90.17
71974;BME280;59840;52.122;5.404;2023-02-03T08:27:27;102594.06;;;9.18;89.68
71974;BME280;59840;52.122;5.404;2023-02-03T08:29:54;102598.16;;;9.21;89.75
71974;BME280;59840;52.122;5.404;2023-02-03T08:32:21;102600.59;;;9.22;90.00
71974;BME280;59840;52.122;5.404;2023-02-03T08:34:48;102605.88;;;9.22;89.69
71974;BME280;59840;52.122;5.404;2023-02-03T08:37:17;102610.94;;;9.24;89.88
71974;BME280;59840;52.122;5.404;2023-02-03T08:39:46;102611.75;;;9.24;89.36
71974;BME280;59840;52.122;5.404;2023-02-03T08:42:13;102608.13;;;9.25;89.68
71974;BME280;59840;52.122;5.404;2023-02-03T08:44:39;102605.28;;;9.27;89.90
71974;BME280;59840;52.122;5.404;2023-02-03T08:47:06;102625.16;;;9.29;90.13
71974;BME280;59840;52.122;5.404;2023-02-03T08:49:33;102617.06;;;9.31;89.35
71974;BME280;59840;52.122;5.404;2023-02-03T08:52:01;102616.69;;;9.34;89.07
71974;BME280;59840;52.122;5.404;2023-02-03T08:54:27;102618.09;;;9.36;89.09
71974;BME280;59840;52.122;5.404;2023-02-03T08:56:54;102616.09;;;9.38;89.16
71974;BME280;59840;52.122;5.404;2023-02-03T08:59:20;102627.25;;;9.40;89.17
71974;BME280;59840;52.122;5.404;2023-02-03T09:01:48;102630.13;;;9.46;89.10
71974;BME280;59840;52.122;5.404;2023-02-03T09:04:16;102628.94;;;9.48;88.84
71974;BME280;59840;52.122;5.404;2023-02-03T09:06:45;102634.00;;;9.50;89.26
71974;BME280;59840;52.122;5.404;2023-02-03T09:09:16;102613.16;;;9.55;89.01
71974;BME280;59840;52.122;5.404;2023-02-03T09:11:43;102635.50;;;9.59;89.21
71974;BME280;59840;52.122;5.404;2023-02-03T09:14:09;102648.28;;;9.62;88.64
71974;BME280;59840;52.122;5.404;2023-02-03T09:16:37;102640.00;;;9.65;88.82
71974;BME280;59840;52.122;5.404;2023-02-03T09:19:04;102633.72;;;9.66;87.92
71974;BME280;59840;52.122;5.404;2023-02-03T09:21:30;102641.25;;;9.69;88.75
71974;BME280;59840;52.122;5.404;2023-02-03T09:24:05;102629.47;;;9.71;88.12
71974;BME280;59840;52.122;5.404;2023-02-03T09:26:32;102636.78;;;9.76;87.94
71974;BME280;59840;52.122;5.404;2023-02-03T09:28:59;102639.44;;;9.76;88.03
71974;BME280;59840;52.122;5.404;2023-02-03T09:31:26;102640.06;;;9.78;88.21
71974;BME280;59840;52.122;5.404;2023-02-03T09:33:52;102630.31;;;9.79;87.91
71974;BME280;59840;52.122;5.404;2023-02-03T09:36:19;102643.31;;;9.80;88.59
71974;BME280;59840;52.122;5.404;2023-02-03T09:38:45;102643.31;;;9.80;88.25
71974;BME280;59840;52.122;5.404;2023-02-03T09:44:21;102647.38;;;9.83;88.01
71974;BME280;59840;52.122;5.404;2023-02-03T09:46:53;102653.47;;;9.83;88.35
71974;BME280;59840;52.122;5.404;2023-02-03T09:49:46;102654.28;;;9.84;88.11
71974;BME280;59840;52.122;5.404;2023-02-03T09:52:20;102657.13;;;9.82;87.55
71974;BME280;59840;52.122;5.404;2023-02-03T09:57:26;102659.34;;;9.85;87.67
71974;BME280;59840;52.122;5.404;2023-02-03T09:59:55;102658.34;;;9.86;87.65
71974;BME280;59840;52.122;5.404;2023-02-03T10:05:24;102668.72;;;9.88;87.53
71974;BME280;59840;52.122;5.404;2023-02-03T10:08:35;102671.97;;;9.90;87.63
71974;BME280;59840;52.122;5.404;2023-02-03T10:20:00;102683.75;;;9.94;87.71
71974;BME280;59840;52.122;5.404;2023-02-03T10:22:29;102683.38;;;9.97;87.62
71974;BME280;59840;52.122;5.404;2023-02-03T10:27:41;102682.59;;;10.03;87.46
71974;BME280;59840;52.122;5.404;2023-02-03T10:30:22;102692.34;;;10.02;86.97
71974;BME280;59840;52.122;5.404;2023-02-03T10:33:16;102694.53;;;10.05;86.63
71974;BME280;59840;52.122;5.404;2023-02-03T10:35:51;102690.09;;;10.06;87.34
71974;BME280;59840;52.122;5.404;2023-02-03T10:41:15;102710.38;;;10.05;87.40
71974;BME280;59840;52.122;5.404;2023-02-03T10:43:42;102708.34;;;10.07;86.85
71974;BME280;59840;52.122;5.404;2023-02-03T10:46:19;102706.34;;;10.09;87.29
71974;BME280;59840;52.122;5.404;2023-02-03T10:48:46;102714.88;;;10.12;86.88
71974;BME280;59840;52.122;5.404;2023-02-03T10:51:19;102709.22;;;10.15;87.20
71974;BME280;59840;52.122;5.404;2023-02-03T10:53:46;102702.72;;;10.17;86.77
71974;BME280;59840;52.122;5.404;2023-02-03T10:56:15;102713.75;;;10.21;86.70
71974;BME280;59840;52.122;5.404;2023-02-03T10:58:52;102718.00;;;10.22;86.60
71974;BME280;59840;52.122;5.404;2023-02-03T11:01:23;102708.69;;;10.26;86.51
71974;BME280;59840;52.122;5.404;2023-02-03T11:04:00;102699.97;;;10.25;86.99
71974;BME280;59840;52.122;5.404;2023-02-03T11:06:27;102708.06;;;10.24;86.21
71974;BME280;59840;52.122;5.404;2023-02-03T11:08:53;102717.38;;;10.20;86.77
71974;BME280;59840;52.122;5.404;2023-02-03T11:11:27;102720.56;;;10.15;86.87
71974;BME280;59840;52.122;5.404;2023-02-03T11:14:09;102728.25;;;10.10;86.78
71974;BME280;59840;52.122;5.404;2023-02-03T11:16:37;102729.47;;;10.07;87.19
71974;BME280;59840;52.122;5.404;2023-02-03T11:19:11;102737.78;;;10.04;87.45
71974;BME280;59840;52.122;5.404;2023-02-03T11:21:45;102722.34;;;10.01;86.88
71974;BME280;59840;52.122;5.404;2023-02-03T11:24:17;102726.81;;;10.01;86.91
71974;BME280;59840;52.122;5.404;2023-02-03T11:27:02;102723.34;;;10.00;87.14
71974;BME280;59840;52.122;5.404;2023-02-03T11:29:32;102711.19;;;9.99;87.53
71974;BME280;59840;52.122;5.404;2023-02-03T11:32:32;102710.38;;;9.99;87.69
71974;BME280;59840;52.122;5.404;2023-02-03T11:35:14;102720.09;;;9.98;87.97
71974;BME280;59840;52.122;5.404;2023-02-03T11:37:44;102714.81;;;9.98;87.22
71974;BME280;59840;52.122;5.404;2023-02-03T11:40:12;102717.88;;;10.02;87.21
71974;BME280;59840;52.122;5.404;2023-02-03T11:55:49;102708.34;;;10.01;87.91
71974;BME280;59840;52.122;5.404;2023-02-03T12:14:48;102733.03;;;9.93;88.46
71974;BME280;59840;52.122;5.404;2023-02-03T12:17:53;102716.22;;;9.94;88.37
71974;BME280;59840;52.122;5.404;2023-02-03T12:20:33;102739.94;;;9.94;88.25
71974;BME280;59840;52.122;5.404;2023-02-03T12:26:02;102742.25;;;9.76;90.11
71974;BME280;59840;52.122;5.404;2023-02-03T12:28:50;102746.69;;;9.69;91.14
71974;BME280;59840;52.122;5.404;2023-02-03T12:35:04;102745.44;;;9.65;91.04
71974;BME280;59840;52.122;5.404;2023-02-03T12:37:08;102755.53;;;9.61;91.09
71974;BME280;59840;52.122;5.404;2023-02-03T12:39:45;102757.72;;;9.58;91.99
71974;BME280;59840;52.122;5.404;2023-02-03T12:45:02;102772.47;;;9.52;92.16
71974;BME280;59840;52.122;5.404;2023-02-03T12:47:44;102776.69;;;9.47;92.69
71974;BME280;59840;52.122;5.404;2023-02-03T12:50:17;102779.69;;;9.44;93.04
71974;BME280;59840;52.122;5.404;2023-02-03T12:55:27;102788.50;;;9.29;93.37
71974;BME280;59840;52.122;5.404;2023-02-03T12:58:02;102801.84;;;9.28;94.40
71974;BME280;59840;52.122;5.404;2023-02-03T13:00:43;102793.75;;;9.29;94.83
71974;BME280;59840;52.122;5.404;2023-02-03T13:09:20;102805.94;;;9.30;93.89
71974;BME280;59840;52.122;5.404;2023-02-03T13:11:28;102804.75;;;9.33;93.72
71974;BME280;59840;52.122;5.404;2023-02-03T13:14:11;102799.88;;;9.36;93.90
71974;BME280;59840;52.122;5.404;2023-02-03T13:16:43;102802.78;;;9.41;92.57
71974;BME280;59840;52.122;5.404;2023-02-03T13:19:19;102810.31;;;9.45;92.82
71974;BME280;59840;52.122;5.404;2023-02-03T13:21:50;102809.31;;;9.46;92.84
71974;BME280;59840;52.122;5.404;2023-02-03T13:24:17;102796.94;;;9.46;91.83
71974;BME280;59840;52.122;5.404;2023-02-03T13:26:57;102802.66;;;9.50;92.70
71974;BME280;59840;52.122;5.404;2023-02-03T13:29:41;102799.00;;;9.51;92.03
71974;BME280;59840;52.122;5.404;2023-02-03T13:32:40;102813.19;;;9.50;92.12
71974;BME280;59840;52.122;5.404;2023-02-03T13:35:36;102808.56;;;9.52;91.29
71974;BME280;59840;52.122;5.404;2023-02-03T13:38:27;102815.28;;;9.54;91.49
71974;BME280;59840;52.122;5.404;2023-02-03T13:41:17;102814.63;;;9.52;90.91
71974;BME280;59840;52.122;5.404;2023-02-03T13:43:49;102804.91;;;9.53;90.44
71974;BME280;59840;52.122;5.404;2023-02-03T13:46:23;102802.09;;;9.54;90.96
71974;BME280;59840;52.122;5.404;2023-02-03T13:48:51;102808.19;;;9.55;88.52
71974;BME280;59840;52.122;5.404;2023-02-03T13:51:22;102808.56;;;9.52;89.19
71974;BME280;59840;52.122;5.404;2023-02-03T13:53:51;102807.38;;;9.54;89.57
71974;BME280;59840;52.122;5.404;2023-02-03T13:56:25;102798.00;;;9.52;90.02
71974;BME280;59840;52.122;5.404;2023-02-03T14:01:41;102805.91;;;9.52;89.48
71974;BME280;59840;52.122;5.404;2023-02-03T14:06:57;102791.31;;;9.49;88.49
71974;BME280;59840;52.122;5.404;2023-02-03T14:12:18;102807.19;;;9.56;87.69
71974;BME280;59840;52.122;5.404;2023-02-03T14:22:58;102843.38;;;9.47;85.69
71974;BME280;59840;52.122;5.404;2023-02-03T14:25:26;102834.03;;;9.45;85.17
71974;BME280;59840;52.122;5.404;2023-02-03T14:28:04;102834.03;;;9.45;84.42
71974;BME280;59840;52.122;5.404;2023-02-03T14:30:31;102851.47;;;9.46;85.26
71974;BME280;59840;52.122;5.404;2023-02-03T14:32:59;102843.94;;;9.43;83.88
71974;BME280;59840;52.122;5.404;2023-02-03T14:35:35;102848.56;;;9.40;84.51
71974;BME280;59840;52.122;5.404;2023-02-03T14:38:05;102856.66;;;9.39;84.79
71974;BME280;59840;52.122;5.404;2023-02-03T14:49:10;102868.34;;;9.30;83.24
71974;BME280;59840;52.122;5.404;2023-02-03T14:56:47;102866.53;;;9.30;82.95
71974;BME280;59840;52.122;5.404;2023-02-03T14:59:47;102874.78;;;9.27;81.84
71974;BME280;59840;52.122;5.404;2023-02-03T15:02:21;102870.72;;;9.25;82.60
71974;BME280;59840;52.122;5.404;2023-02-03T15:07:44;102874.72;;;9.21;81.97
71974;BME280;59840;52.122;5.404;2023-02-03T15:10:28;102865.16;;;9.20;81.71
71974;BME280;59840;52.122;5.404;2023-02-03T15:12:56;102863.09;;;9.15;81.73
71974;BME280;59840;52.122;5.404;2023-02-03T15:15:25;102859.81;;;9.13;80.95